Time;durP1;ratioP1;P1;durP2;ratioP2;P2;SDS_P1;SDS_P2;PMS_P1;PMS_P2;Temp;Humidity;BMP_temperature;BMP_pressure;BME280_temperature;BME280_humidity;BME280_pressure;Samples;Min_cycle;Max_cycle;Signal;HPM_P1;HPM_P2
2022/12/19 00:00:20;;;;;;;5.68;2.63;;;14.30;84.40;;;;;;4974977;28;20022;-93
2022/12/19 00:02:45;;;;;;;10.05;3.88;;;14.30;84.40;;;;;;4975357;28;20034;-92
2022/12/19 00:05:12;;;;;;;7.22;2.97;;;14.30;84.50;;;;;;4975165;28;20034;-91
2022/12/19 00:07:37;;;;;;;10.68;2.78;;;14.30;84.50;;;;;;4975191;28;20125;-91
2022/12/19 00:10:04;;;;;;;9.13;3.60;;;14.30;84.50;;;;;;4975377;28;20038;-91
2022/12/19 00:12:30;;;;;;;4.88;3.17;;;14.30;84.50;;;;;;4974927;28;20080;-91
2022/12/19 00:14:55;;;;;;;7.43;3.35;;;14.30;84.50;;;;;;4975476;28;20395;-92
2022/12/19 00:17:21;;;;;;;5.50;2.83;;;14.30;84.50;;;;;;4978601;28;20027;-91
2022/12/19 00:19:47;;;;;;;9.57;3.05;;;14.30;84.50;;;;;;4978759;28;20503;-93
2022/12/19 00:22:12;;;;;;;8.10;3.53;;;14.30;84.50;;;;;;4978372;28;20048;-91
2022/12/19 00:24:38;;;;;;;6.65;3.22;;;14.30;84.50;;;;;;4978481;28;20408;-92
2022/12/19 00:27:03;;;;;;;4.05;2.50;;;14.30;84.60;;;;;;4978609;28;20027;-92
2022/12/19 00:29:29;;;;;;;8.70;2.90;;;14.30;84.80;;;;;;4978430;28;20030;-91
2022/12/19 00:31:54;;;;;;;8.70;3.17;;;14.30;84.90;;;;;;4978356;28;20030;-92
2022/12/19 00:34:20;;;;;;;7.28;3.13;;;14.30;84.90;;;;;;4978436;28;20565;-92
2022/12/19 00:36:45;;;;;;;5.25;2.85;;;14.30;84.90;;;;;;4978486;28;20538;-92
2022/12/19 00:39:11;;;;;;;9.77;2.92;;;14.30;84.80;;;;;;4977996;28;20500;-92
2022/12/19 00:41:39;;;;;;;8.88;3.15;;;14.30;84.80;;;;;;4978168;28;20026;-91
2022/12/19 00:44:08;;;;;;;4.68;2.67;;;14.30;84.90;;;;;;4978250;28;20037;-91
2022/12/19 00:46:34;;;;;;;5.85;3.08;;;14.30;84.80;;;;;;4978437;28;20024;-92
2022/12/19 00:49:00;;;;;;;5.88;3.15;;;14.30;85.60;;;;;;4977758;28;20033;-92
2022/12/19 00:51:28;;;;;;;3.47;2.72;;;14.30;84.90;;;;;;4977933;28;20065;-91
2022/12/19 00:53:55;;;;;;;7.13;3.40;;;14.20;84.90;;;;;;4977953;28;20081;-92
2022/12/19 00:56:24;;;;;;;6.45;3.20;;;14.20;85.00;;;;;;4977837;28;20027;-92
2022/12/19 00:58:51;;;;;;;5.10;2.85;;;14.30;85.00;;;;;;4977608;28;20045;-91
2022/12/19 01:01:20;;;;;;;5.47;3.30;;;14.30;85.00;;;;;;4978264;28;20491;-93
2022/12/19 01:03:47;;;;;;;5.47;2.97;;;14.30;85.00;;;;;;5000359;28;20480;-91
2022/12/19 01:06:13;;;;;;;8.80;3.65;;;14.30;85.20;;;;;;4999818;28;20033;-92
2022/12/19 01:08:38;;;;;;;13.35;4.20;;;14.30;85.20;;;;;;4999496;28;20040;-93
2022/12/19 01:11:05;;;;;;;8.45;3.33;;;14.30;85.20;;;;;;4999625;28;20022;-94
2022/12/19 01:13:33;;;;;;;11.55;3.30;;;14.30;85.20;;;;;;4999086;28;20026;-92
2022/12/19 01:16:06;;;;;;;16.23;3.50;;;14.30;85.30;;;;;;4999212;28;20471;-92
2022/12/19 01:18:33;;;;;;;8.63;3.10;;;14.30;85.30;;;;;;4999072;28;20030;-92
2022/12/19 01:21:01;;;;;;;6.78;3.50;;;14.30;85.40;;;;;;4998987;28;20040;-92
2022/12/19 01:23:26;;;;;;;15.65;3.55;;;14.30;85.50;;;;;;5016964;28;20036;-92
2022/12/19 01:25:53;;;;;;;12.70;3.38;;;14.30;85.60;;;;;;4999033;28;20510;-93
2022/12/19 01:28:19;;;;;;;10.23;3.58;;;14.30;85.60;;;;;;4999197;28;20037;-93
2022/12/19 01:30:45;;;;;;;8.27;3.33;;;14.30;85.60;;;;;;4999045;28;20021;-93
2022/12/19 01:33:12;;;;;;;9.18;3.70;;;14.30;85.50;;;;;;4999499;28;20137;-93
2022/12/19 01:35:38;;;;;;;13.65;3.17;;;14.30;85.60;;;;;;4999010;28;20045;-92
2022/12/19 01:38:04;;;;;;;9.80;3.65;;;14.30;85.60;;;;;;4999014;28;20121;-92
2022/12/19 01:40:30;;;;;;;9.75;3.95;;;14.30;85.60;;;;;;4998787;28;20512;-91
2022/12/19 01:42:56;;;;;;;15.90;3.88;;;14.30;86.30;;;;;;4998889;28;20033;-93
2022/12/19 01:45:30;;;;;;;8.15;3.42;;;14.30;85.60;;;;;;4998777;28;20029;-93
2022/12/19 01:48:13;;;;;;;7.82;2.92;;;14.30;85.60;;;;;;4981959;28;20022;-93
2022/12/19 01:50:50;;;;;;;15.00;3.78;;;14.20;85.60;;;;;;4979151;28;20022;-93
2022/12/19 01:53:16;;;;;;;5.90;2.92;;;14.30;85.70;;;;;;4979607;28;20503;-93
2022/12/19 01:55:43;;;;;;;8.52;2.95;;;14.20;85.60;;;;;;4979392;28;20023;-93
2022/12/19 01:58:10;;;;;;;11.15;4.15;;;14.20;85.60;;;;;;4978748;28;20034;-93
2022/12/19 02:00:35;;;;;;;9.00;3.38;;;14.20;85.70;;;;;;4979710;28;20121;-93
2022/12/19 02:03:12;;;;;;;11.07;3.45;;;14.20;85.80;;;;;;4979953;28;20526;-92
2022/12/19 02:05:38;;;;;;;9.73;3.50;;;14.20;85.80;;;;;;4979817;28;20480;-92
2022/12/19 02:08:05;;;;;;;4.80;2.47;;;14.20;85.70;;;;;;4979031;28;20126;-93
2022/12/19 02:10:30;;;;;;;7.88;3.25;;;14.30;85.80;;;;;;4978735;28;20026;-91
2022/12/19 02:12:56;;;;;;;8.25;3.15;;;14.20;85.70;;;;;;4979176;28;20114;-93
2022/12/19 02:15:23;;;;;;;11.70;3.45;;;14.20;85.70;;;;;;4998441;28;20018;-92
2022/12/19 02:18:16;;;;;;;6.45;3.33;;;14.20;85.70;;;;;;4998185;28;20037;-93
2022/12/19 02:21:17;;;;;;;7.60;3.15;;;14.20;86.00;;;;;;4998133;28;20069;-93
2022/12/19 02:24:18;;;;;;;7.70;3.65;;;14.20;86.00;;;;;;4998282;28;20079;-93
2022/12/19 02:27:13;;;;;;;7.15;3.35;;;14.20;85.80;;;;;;4998192;28;20054;-93
2022/12/19 02:29:50;;;;;;;9.27;3.20;;;14.20;85.80;;;;;;4997671;28;20030;-93
2022/12/19 02:32:34;;;;;;;6.25;3.17;;;14.20;85.80;;;;;;4997624;28;20026;-93
2022/12/19 02:35:12;;;;;;;6.65;2.80;;;14.20;86.00;;;;;;4997752;28;20494;-93
2022/12/19 02:37:54;;;;;;;6.93;3.08;;;14.20;86.20;;;;;;4997511;28;20065;-94
2022/12/19 02:40:30;;;;;;;6.40;3.20;;;14.20;86.10;;;;;;4981555;28;20373;-93
2022/12/19 02:42:59;;;;;;;12.27;3.88;;;14.20;86.20;;;;;;4998124;28;20025;-92
2022/12/19 02:45:30;;;;;;;12.35;3.33;;;14.20;86.20;;;;;;4997798;28;20198;-93
2022/12/19 02:47:59;;;;;;;8.63;2.92;;;14.20;86.40;;;;;;4982121;28;20053;-93
2022/12/19 02:50:24;;;;;;;7.90;3.25;;;14.20;86.30;;;;;;4997798;28;20118;-93
2022/12/19 02:52:50;;;;;;;12.48;3.92;;;14.20;86.30;;;;;;4997796;28;20057;-93
2022/12/19 02:55:20;;;;;;;9.30;3.15;;;14.20;86.30;;;;;;4995829;28;20022;-92
2022/12/19 02:57:52;;;;;;;6.72;3.17;;;14.20;86.30;;;;;;4978456;28;20026;-92
2022/12/19 03:00:20;;;;;;;7.40;3.13;;;14.20;86.20;;;;;;4977889;28;20030;-92
2022/12/19 03:02:58;;;;;;;8.90;3.47;;;14.20;86.30;;;;;;4978169;28;20026;-93
2022/12/19 03:05:28;;;;;;;7.82;3.47;;;14.20;86.30;;;;;;4959453;28;20059;-93
2022/12/19 03:07:54;;;;;;;;;;;14.20;86.30;;;;;;4959013;28;20030;-93
2022/12/19 03:10:22;;;;;;;9.43;2.92;;;14.20;86.20;;;;;;4958782;28;20397;-92
2022/12/19 03:12:59;;;;;;;5.45;3.15;;;14.20;86.30;;;;;;4958722;28;20050;-94
2022/12/19 03:15:26;;;;;;;7.80;3.38;;;14.20;86.20;;;;;;4958648;28;20392;-94
2022/12/19 03:17:56;;;;;;;10.60;2.92;;;14.20;86.30;;;;;;4958542;28;20038;-92
2022/12/19 03:20:49;;;;;;;8.73;3.65;;;14.20;86.30;;;;;;4958931;28;20023;-92
2022/12/19 03:23:15;;;;;;;5.60;2.95;;;14.20;86.30;;;;;;4958584;28;20078;-93
2022/12/19 03:25:44;;;;;;;13.82;3.67;;;14.20;86.40;;;;;;4958327;28;20125;-93
2022/12/19 03:28:15;;;;;;;10.18;3.35;;;14.20;86.40;;;;;;4986770;28;20022;-92
2022/12/19 03:30:43;;;;;;;9.90;3.15;;;14.20;86.40;;;;;;4997354;28;20021;-92
2022/12/19 03:33:10;;;;;;;6.10;3.28;;;14.20;86.40;;;;;;4997005;28;20033;-94
2022/12/19 03:35:38;;;;;;;11.25;2.85;;;14.20;86.40;;;;;;4997201;28;20563;-92
2022/12/19 03:38:05;;;;;;;7.72;3.88;;;14.20;86.40;;;;;;4989788;28;20031;-92
2022/12/19 03:40:36;;;;;;;6.22;2.97;;;14.20;86.40;;;;;;4974164;28;20027;-92
2022/12/19 03:43:08;;;;;;;10.32;3.70;;;14.20;86.40;;;;;;4990555;28;20038;-93
2022/12/19 03:45:41;;;;;;;4.78;2.85;;;14.20;86.60;;;;;;4974615;28;20035;-92
2022/12/19 03:48:11;;;;;;;6.97;3.83;;;14.20;86.60;;;;;;4977227;28;20546;-93
2022/12/19 03:51:25;;;;;;;8.18;3.22;;;14.20;86.60;;;;;;4979142;28;20041;-94
2022/12/19 03:54:15;;;;;;;8.63;3.22;;;14.20;86.60;;;;;;4938063;29;20413;-93
2022/12/19 03:57:17;;;;;;;11.30;3.63;;;14.20;86.50;;;;;;4922449;29;20031;-91
2022/12/19 03:59:56;;;;;;;5.95;3.15;;;14.20;86.50;;;;;;4925640;29;20032;-93
2022/12/19 04:02:23;;;;;;;8.20;3.13;;;14.20;86.60;;;;;;4921781;29;20028;-93
2022/12/19 04:04:54;;;;;;;7.28;3.13;;;14.20;86.60;;;;;;4928423;29;20120;-93
2022/12/19 04:07:23;;;;;;;7.20;3.22;;;14.20;86.60;;;;;;4940960;29;20078;-93
2022/12/19 04:09:50;;;;;;;8.57;3.28;;;14.20;86.60;;;;;;4940537;29;20039;-93
2022/12/19 04:12:23;;;;;;;7.10;3.10;;;14.20;86.70;;;;;;4940900;29;20020;-92
2022/12/19 04:14:50;;;;;;;5.28;3.35;;;14.20;86.70;;;;;;4941150;29;20062;-92
2022/12/19 04:17:30;;;;;;;5.07;3.20;;;14.20;86.80;;;;;;4940620;29;20028;-93
2022/12/19 04:20:00;;;;;;;8.40;3.70;;;14.30;86.70;;;;;;4940606;29;20493;-93
2022/12/19 04:22:35;;;;;;;7.95;3.38;;;14.30;86.70;;;;;;4940587;29;20042;-93
2022/12/19 04:25:03;;;;;;;8.65;3.15;;;14.30;86.70;;;;;;4932827;29;20105;-93
2022/12/19 04:27:33;;;;;;;7.93;3.63;;;14.30;86.60;;;;;;4921101;29;20176;-94
2022/12/19 04:30:01;;;;;;;7.93;3.08;;;14.30;86.70;;;;;;4942234;28;20039;-94
2022/12/19 04:32:28;;;;;;;7.43;3.20;;;14.30;86.70;;;;;;4960750;28;20023;-92
2022/12/19 04:34:54;;;;;;;13.20;4.63;;;14.30;86.70;;;;;;4960978;28;20023;-92
2022/12/19 04:37:20;;;;;;;10.35;4.10;;;14.30;86.60;;;;;;4960687;28;20550;-92
2022/12/19 04:39:45;;;;;;;8.88;4.03;;;14.30;86.80;;;;;;4961035;28;20061;-92
2022/12/19 04:42:11;;;;;;;8.43;3.95;;;14.30;86.70;;;;;;4960433;28;20034;-93
2022/12/19 04:44:36;;;;;;;9.98;3.30;;;14.20;86.70;;;;;;4972639;28;20459;-94
2022/12/19 04:47:02;;;;;;;7.55;3.78;;;14.20;86.80;;;;;;4980049;28;20027;-92
2022/12/19 04:49:28;;;;;;;6.53;3.13;;;14.20;86.80;;;;;;4979388;28;20031;-93
2022/12/19 04:51:53;;;;;;;6.60;3.15;;;14.20;86.80;;;;;;4979658;28;20046;-93
2022/12/19 04:54:20;;;;;;;8.02;3.05;;;14.20;86.70;;;;;;4979676;28;20026;-93
2022/12/19 04:56:45;;;;;;;13.50;3.78;;;14.20;86.70;;;;;;4979830;28;20018;-93
2022/12/19 04:59:11;;;;;;;6.32;3.45;;;14.30;86.60;;;;;;4979836;28;20023;-92
2022/12/19 05:01:36;;;;;;;11.23;3.50;;;14.30;86.60;;;;;;4979571;28;20113;-92
2022/12/19 05:04:02;;;;;;;7.88;2.78;;;14.30;86.60;;;;;;4980867;28;20034;-93
2022/12/19 05:06:31;;;;;;;7.43;3.90;;;14.30;86.50;;;;;;4981306;28;20054;-92
2022/12/19 05:08:56;;;;;;;10.50;3.20;;;14.30;86.40;;;;;;4981188;28;20113;-92
2022/12/19 05:11:22;;;;;;;9.75;3.45;;;14.40;86.40;;;;;;4985116;28;20076;-93
2022/12/19 05:13:48;;;;;;;8.40;3.10;;;14.30;86.50;;;;;;4982975;28;20097;-92
2022/12/19 05:16:15;;;;;;;8.57;3.45;;;14.30;86.50;;;;;;4981669;28;20029;-93
2022/12/19 05:18:41;;;;;;;8.80;4.00;;;14.40;86.60;;;;;;4984195;28;20023;-92
2022/12/19 05:21:07;;;;;;;8.13;3.25;;;14.40;86.40;;;;;;4979090;28;20026;-92
2022/12/19 05:23:33;;;;;;;9.25;3.47;;;14.40;86.50;;;;;;4991780;28;20076;-93
2022/12/19 05:26:03;;;;;;;12.30;3.47;;;14.40;86.40;;;;;;4997877;28;20030;-92
2022/12/19 05:28:29;;;;;;;;;;;14.50;86.60;;;;;;4989413;28;20034;-92
2022/12/19 05:31:12;;;;;;;14.38;3.60;;;14.50;86.50;;;;;;4979875;28;19905;-93
2022/12/19 05:33:38;;;;;;;16.30;3.85;;;14.50;86.50;;;;;;4983687;28;20065;-92
2022/12/19 05:36:05;;;;;;;9.75;3.15;;;14.50;86.60;;;;;;4978481;28;20029;-92
2022/12/19 05:38:31;;;;;;;9.98;3.42;;;14.50;86.60;;;;;;4997012;28;20514;-93
2022/12/19 05:40:57;;;;;;;10.80;3.65;;;14.50;86.70;;;;;;4980306;28;20072;-94
2022/12/19 05:43:22;;;;;;;14.73;4.18;;;14.50;86.70;;;;;;4979525;28;20506;-93
2022/12/19 05:45:48;;;;;;;9.95;3.50;;;14.50;87.50;;;;;;4985859;28;20108;-93
2022/12/19 05:48:14;;;;;;;22.48;3.38;;;14.50;86.90;;;;;;4980332;28;20027;-92
2022/12/19 05:50:40;;;;;;;15.15;4.57;;;14.50;86.90;;;;;;4978644;28;20144;-93
2022/12/19 05:53:05;;;;;;;11.43;4.25;;;14.50;86.90;;;;;;4979361;28;20444;-92
2022/12/19 05:55:31;;;;;;;11.25;3.40;;;14.50;87.00;;;;;;4981771;28;20046;-93
2022/12/19 05:58:23;;;;;;;6.35;3.25;;;14.50;86.90;;;;;;4990726;28;20010;-94
2022/12/19 06:00:48;;;;;;;7.55;3.50;;;14.60;87.00;;;;;;4977659;28;20118;-90
2022/12/19 06:03:14;;;;;;;17.65;3.10;;;14.60;87.20;;;;;;5043483;22;20049;-93
2022/12/19 06:05:40;;;;;;;20.17;4.53;;;14.80;87.60;;;;;;5025664;28;20093;-92
2022/12/19 06:08:06;;;;;;;9.52;3.47;;;14.80;87.70;;;;;;5032585;28;20057;-91
2022/12/19 06:10:31;;;;;;;26.08;3.80;;;14.80;87.50;;;;;;5028633;28;20026;-92
2022/12/19 06:12:57;;;;;;;16.45;3.92;;;14.70;87.30;;;;;;5031816;28;20007;-93
2022/12/19 06:15:22;;;;;;;10.18;3.72;;;14.70;87.40;;;;;;5041263;28;20021;-93
2022/12/19 06:17:52;;;;;;;8.18;3.17;;;14.70;87.40;;;;;;5045523;28;20029;-93
2022/12/19 06:20:18;;;;;;;11.45;3.53;;;14.60;87.30;;;;;;5041945;28;20002;-93
2022/12/19 06:22:43;;;;;;;11.77;3.67;;;14.60;87.30;;;;;;5039503;28;20116;-91
2022/12/19 06:25:09;;;;;;;15.07;3.45;;;14.60;87.30;;;;;;5035701;28;20450;-92
2022/12/19 06:27:34;;;;;;;11.23;2.88;;;14.60;87.20;;;;;;5042690;28;20437;-92
2022/12/19 06:30:00;;;;;;;13.65;3.42;;;14.60;87.30;;;;;;5025632;28;20056;-91
2022/12/19 06:32:25;;;;;;;14.50;4.20;;;14.50;87.10;;;;;;5035686;28;20022;-91
2022/12/19 06:34:51;;;;;;;8.77;3.53;;;14.50;87.10;;;;;;5036553;28;20041;-91
2022/12/19 06:37:16;;;;;;;5.95;2.92;;;14.50;87.10;;;;;;5044170;28;20026;-92
2022/12/19 06:39:42;;;;;;;18.33;3.97;;;14.50;86.90;;;;;;5036131;28;20030;-92
2022/12/19 06:42:24;;;;;;;7.43;3.45;;;14.50;86.90;;;;;;5043376;28;20029;-91
2022/12/19 06:44:54;;;;;;;12.38;3.75;;;14.50;87.30;;;;;;5045288;28;20026;-92
2022/12/19 06:47:22;;;;;;;7.07;3.43;;;14.40;86.80;;;;;;5037790;28;20093;-93
2022/12/19 06:49:48;;;;;;;7.72;3.38;;;14.40;86.90;;;;;;5035235;28;20068;-92
2022/12/19 06:52:14;;;;;;;7.22;3.28;;;14.40;86.80;;;;;;5035078;28;20040;-93
2022/12/19 06:54:40;;;;;;;6.03;3.05;;;14.40;86.70;;;;;;5039718;28;20117;-92
2022/12/19 06:57:06;;;;;;;8.57;3.80;;;14.40;86.70;;;;;;5045666;28;20017;-92
2022/12/19 06:59:32;;;;;;;7.72;2.92;;;14.40;86.60;;;;;;5038545;28;20215;-92
2022/12/19 07:02:05;;;;;;;8.75;3.72;;;14.40;86.60;;;;;;5035240;28;20037;-93
2022/12/19 07:04:36;;;;;;;12.98;3.60;;;14.30;86.50;;;;;;5048435;28;20055;-93
2022/12/19 07:07:06;;;;;;;7.60;3.85;;;14.30;86.50;;;;;;5040826;28;20029;-93
2022/12/19 07:09:33;;;;;;;7.63;2.95;;;14.30;86.40;;;;;;5040394;28;20080;-91
2022/12/19 07:11:59;;;;;;;8.00;3.70;;;14.30;86.40;;;;;;5037511;28;20033;-95
2022/12/19 07:14:25;;;;;;;18.88;3.95;;;14.40;86.30;;;;;;5038858;28;20013;-94
2022/12/19 07:16:52;;;;;;;9.50;3.78;;;14.30;86.30;;;;;;5036651;28;20454;-94
2022/12/19 07:19:20;;;;;;;5.20;3.30;;;14.30;86.20;;;;;;5044049;28;20037;-94
2022/12/19 07:21:45;;;;;;;8.38;2.90;;;14.40;86.20;;;;;;5044708;28;20027;-94
2022/12/19 07:24:13;;;;;;;9.18;3.58;;;14.40;86.20;;;;;;5049857;28;20023;-94
2022/12/19 07:26:40;;;;;;;6.13;3.10;;;14.40;86.20;;;;;;5054232;28;20033;-92
2022/12/19 07:29:06;;;;;;;10.98;3.63;;;14.40;86.10;;;;;;5048958;28;20038;-93
2022/12/19 07:31:31;;;;;;;6.78;3.10;;;14.40;86.10;;;;;;5047832;28;20052;-94
2022/12/19 07:33:57;;;;;;;8.45;3.53;;;14.40;86.00;;;;;;5047972;28;20053;-93
2022/12/19 07:36:22;;;;;;;7.82;3.28;;;14.40;86.00;;;;;;5043026;28;20006;-93
2022/12/19 07:38:49;;;;;;;6.15;3.20;;;14.40;86.00;;;;;;5047148;28;20022;-93
2022/12/19 07:41:15;;;;;;;6.85;3.15;;;14.40;86.00;;;;;;5048182;28;20018;-93
2022/12/19 07:43:41;;;;;;;7.00;3.28;;;14.40;86.00;;;;;;5042413;28;20025;-93
2022/12/19 07:46:06;;;;;;;7.72;3.58;;;14.40;85.90;;;;;;5044444;28;20025;-94
2022/12/19 07:48:32;;;;;;;6.07;2.97;;;14.40;85.90;;;;;;5050886;28;20056;-92
2022/12/19 07:50:57;;;;;;;8.90;3.50;;;14.40;86.60;;;;;;5042883;28;20036;-94
2022/12/19 07:53:23;;;;;;;5.65;3.22;;;14.40;85.90;;;;;;5050702;28;20010;-94
2022/12/19 07:55:52;;;;;;;5.32;3.10;;;14.40;86.00;;;;;;5054688;28;20029;-93
2022/12/19 07:58:17;;;;;;;6.03;3.25;;;14.40;85.90;;;;;;5044679;28;20018;-93
2022/12/19 08:00:43;;;;;;;8.90;3.30;;;14.40;85.90;;;;;;5048876;28;20030;-93
2022/12/19 08:03:09;;;;;;;7.70;3.30;;;14.40;86.00;;;;;;5036074;28;20038;-94
2022/12/19 08:05:34;;;;;;;7.75;3.08;;;14.40;86.00;;;;;;5036688;28;20049;-94
2022/12/19 08:08:00;;;;;;;10.05;3.55;;;14.40;85.90;;;;;;5043947;28;20018;-93
2022/12/19 08:10:25;;;;;;;5.70;3.15;;;14.30;86.00;;;;;;5046981;28;20032;-93
2022/12/19 08:12:51;;;;;;;8.60;3.35;;;14.40;86.00;;;;;;5044442;28;20109;-94
2022/12/19 08:15:16;;;;;;;7.97;3.45;;;14.40;85.80;;;;;;5053066;28;20053;-94
2022/12/19 08:17:42;;;;;;;9.25;3.83;;;14.40;85.60;;;;;;5055633;28;20034;-93
2022/12/19 08:20:12;;;;;;;6.45;3.25;;;14.40;85.50;;;;;;5044856;28;20017;-93
2022/12/19 08:22:38;;;;;;;7.70;3.88;;;14.40;85.50;;;;;;5048899;28;20010;-93
2022/12/19 08:25:05;;;;;;;5.80;2.67;;;14.50;85.50;;;;;;5044905;28;20506;-93
2022/12/19 08:27:30;;;;;;;7.65;3.22;;;14.50;85.50;;;;;;5051351;28;20026;-92
2022/12/19 08:29:56;;;;;;;4.68;3.17;;;14.50;85.30;;;;;;5057585;28;20055;-92
2022/12/19 08:32:21;;;;;;;8.18;3.17;;;14.50;85.30;;;;;;5048032;28;20018;-92
2022/12/19 08:34:47;;;;;;;6.88;3.45;;;14.50;85.30;;;;;;5060368;28;20017;-94
2022/12/19 08:37:13;;;;;;;4.47;2.83;;;14.50;85.20;;;;;;5059866;28;20089;-94
2022/12/19 08:39:38;;;;;;;6.72;3.47;;;14.50;85.10;;;;;;5051270;28;20029;-95
2022/12/19 08:42:04;;;;;;;7.03;4.00;;;14.50;85.10;;;;;;5053145;28;20006;-95
2022/12/19 08:44:29;;;;;;;8.40;3.22;;;14.50;85.10;;;;;;5057262;28;20045;-95
2022/12/19 08:46:55;;;;;;;7.78;3.20;;;14.50;85.00;;;;;;5047894;28;20041;-95
2022/12/19 08:49:21;;;;;;;4.55;3.08;;;14.50;85.00;;;;;;5049310;28;20254;-95
2022/12/19 08:51:46;;;;;;;6.18;3.10;;;14.50;85.00;;;;;;5045326;28;20036;-95
2022/12/19 08:54:12;;;;;;;7.20;3.22;;;14.60;85.10;;;;;;5045520;28;20034;-94
2022/12/19 08:56:38;;;;;;;10.15;3.53;;;14.50;85.00;;;;;;5042730;28;20022;-93
2022/12/19 08:59:05;;;;;;;5.13;3.42;;;14.50;85.00;;;;;;5043154;28;20041;-94
2022/12/19 09:01:30;;;;;;;6.50;3.50;;;14.50;85.00;;;;;;5047362;28;20106;-93
2022/12/19 09:03:59;;;;;;;9.45;3.00;;;14.60;85.00;;;;;;5054877;28;20017;-94
2022/12/19 09:06:25;;;;;;;7.15;3.13;;;14.60;85.00;;;;;;5051556;28;20036;-94
2022/12/19 09:08:51;;;;;;;8.30;3.03;;;14.60;84.90;;;;;;5041052;28;20018;-94
2022/12/19 09:11:18;;;;;;;4.97;3.10;;;14.60;84.80;;;;;;5047964;28;20022;-95
2022/12/19 09:13:45;;;;;;;12.15;3.63;;;14.60;84.80;;;;;;5039603;28;20025;-93
2022/12/19 09:16:22;;;;;;;6.95;3.20;;;14.60;84.70;;;;;;5039254;28;20037;-93
2022/12/19 09:18:50;;;;;;;5.47;3.33;;;14.60;84.70;;;;;;5039528;28;20030;-92
2022/12/19 09:21:17;;;;;;;5.60;3.30;;;14.60;84.70;;;;;;5046163;28;20029;-93
2022/12/19 09:23:48;;;;;;;64.28;9.88;;;14.60;84.60;;;;;;5041377;28;20028;-93
2022/12/19 09:26:14;;;;;;;37.65;12.63;;;14.60;81.10;;;;;;5028532;28;20029;-94
2022/12/19 09:28:40;;;;;;;47.78;14.70;;;14.10;75.60;;;;;;5046305;28;20026;-94
2022/12/19 09:31:10;;;;;;;50.13;19.23;;;14.10;71.50;;;;;;5048832;28;20025;-93
2022/12/19 09:33:37;;;;;;;67.38;22.33;;;13.80;64.60;;;;;;5049705;28;20617;-94
2022/12/19 09:36:04;;;;;;;65.85;23.20;;;13.60;59.50;;;;;;5049153;28;20138;-94
2022/12/19 09:38:31;;;;;;;81.95;28.25;;;13.50;58.20;;;;;;5043740;28;20438;-92
2022/12/19 09:40:56;;;;;;;78.85;28.00;;;13.30;57.20;;;;;;5041347;28;20056;-93
2022/12/19 09:43:52;;;;;;;96.60;25.25;;;13.20;59.00;;;;;;5033546;28;20407;-92
2022/12/19 09:46:17;;;;;;;76.63;24.20;;;13.50;61.70;;;;;;5036570;28;20051;-92
2022/12/19 09:48:46;;;;;;;80.03;25.92;;;13.80;63.50;;;;;;5033113;28;20025;-92
2022/12/19 09:51:36;;;;;;;74.80;21.83;;;13.90;64.80;;;;;;5032459;28;20029;-92
2022/12/19 09:54:30;;;;;;;61.22;21.60;;;14.00;65.90;;;;;;5033000;28;20376;-92
2022/12/19 09:57:01;;;;;;;61.35;20.40;;;14.10;67.20;;;;;;5037643;28;20025;-92
2022/12/19 09:59:33;;;;;;;60.78;19.73;;;14.20;68.40;;;;;;5027700;28;20032;-91
2022/12/19 10:02:21;;;;;;;62.47;19.58;;;14.20;69.20;;;;;;5032321;28;20025;-92
2022/12/19 10:04:50;;;;;;;49.05;17.65;;;14.20;70.70;;;;;;5031716;28;20029;-93
2022/12/19 10:07:19;;;;;;;59.38;18.48;;;14.30;70.80;;;;;;5046036;28;20116;-92
2022/12/19 10:09:45;;;;;;;47.92;17.52;;;14.30;71.30;;;;;;5043052;28;20022;-94
2022/12/19 10:12:36;;;;;;;50.33;16.92;;;14.40;71.80;;;;;;5043312;28;20079;-93
2022/12/19 10:15:05;;;;;;;;;;;14.40;72.30;;;;;;5055956;28;20041;-92
2022/12/19 10:17:53;;;;;;;42.15;15.52;;;14.50;72.80;;;;;;5051429;28;19944;-92
2022/12/19 10:20:26;;;;;;;41.25;14.52;;;14.50;73.20;;;;;;5040680;28;20029;-93
2022/12/19 10:23:10;;;;;;;39.67;13.55;;;14.60;73.60;;;;;;5036133;28;20040;-93
2022/12/19 10:25:56;;;;;;;40.28;14.48;;;14.50;73.80;;;;;;5043489;28;20056;-93
2022/12/19 10:28:50;;;;;;;35.03;13.45;;;14.60;74.10;;;;;;5037955;28;20459;-93
2022/12/19 10:31:19;;;;;;;47.10;12.27;;;14.70;74.40;;;;;;5034019;28;20037;-93
2022/12/19 10:33:47;;;;;;;34.35;13.10;;;14.70;74.70;;;;;;5027975;28;20025;-90
2022/12/19 10:36:14;;;;;;;30.38;12.10;;;14.70;74.90;;;;;;5030357;28;20033;-91
2022/12/19 10:38:56;;;;;;;36.00;10.77;;;14.80;75.20;;;;;;5025045;28;20045;-92
2022/12/19 10:41:27;;;;;;;33.53;12.43;;;14.80;75.40;;;;;;5039627;28;20060;-95
2022/12/19 10:44:04;;;;;;;32.97;11.43;;;14.80;75.70;;;;;;5036815;28;20034;-93
2022/12/19 10:46:40;;;;;;;29.02;10.35;;;14.80;75.90;;;;;;5051962;28;20025;-94
2022/12/19 10:49:18;;;;;;;28.73;11.15;;;14.80;76.20;;;;;;5045461;28;20033;-94
2022/12/19 10:52:08;;;;;;;37.75;10.90;;;14.80;76.40;;;;;;5031390;28;20022;-94
2022/12/19 10:54:37;;;;;;;25.50;10.35;;;14.80;76.50;;;;;;5017722;28;20390;-92
2022/12/19 10:57:24;;;;;;;29.15;10.32;;;14.90;76.80;;;;;;5013858;28;20014;-89
2022/12/19 11:00:14;;;;;;;26.35;8.52;;;14.80;76.80;;;;;;5023491;28;20026;-90
2022/12/19 11:02:46;;;;;;;24.23;9.70;;;14.80;76.80;;;;;;5012574;28;20037;-93
2022/12/19 11:05:38;;;;;;;26.35;10.10;;;14.80;76.90;;;;;;5033025;28;20029;-89
2022/12/19 11:08:07;;;;;;;28.67;9.10;;;14.90;76.90;;;;;;5012755;28;20026;-91
2022/12/19 11:10:49;;;;;;;28.58;10.23;;;15.00;77.10;;;;;;5013660;28;20516;-91
2022/12/19 11:13:23;;;;;;;23.88;8.77;;;14.90;77.00;;;;;;5035461;28;20494;-90
2022/12/19 11:15:56;;;;;;;26.60;8.65;;;15.00;77.10;;;;;;5031731;28;20398;-89
2022/12/19 11:18:24;;;;;;;19.05;8.05;;;15.00;77.10;;;;;;5031412;28;20475;-92
2022/12/19 11:21:09;;;;;;;24.05;8.27;;;15.00;77.20;;;;;;5031634;28;20076;-90
2022/12/19 11:23:35;;;;;;;23.77;8.48;;;15.00;77.90;;;;;;5032622;28;20082;-92
2022/12/19 11:26:03;;;;;;;20.58;8.38;;;15.10;77.30;;;;;;5031189;28;20018;-89
2022/12/19 11:28:35;;;;;;;15.82;7.25;;;15.10;77.30;;;;;;5022113;28;20037;-90
2022/12/19 11:31:21;;;;;;;18.55;7.82;;;15.20;77.40;;;;;;5033554;28;20655;-92
2022/12/19 11:33:53;;;;;;;20.60;8.38;;;15.20;77.40;;;;;;5034091;28;20025;-92
2022/12/19 11:36:50;;;;;;;21.75;7.70;;;15.20;77.30;;;;;;5033766;28;20441;-92
2022/12/19 11:39:22;;;;;;;21.83;8.43;;;15.20;77.40;;;;;;5012555;28;20033;-91
2022/12/19 11:41:58;;;;;;;24.00;8.27;;;15.30;77.50;;;;;;5030847;28;20092;-93
2022/12/19 11:44:30;;;;;;;19.25;7.75;;;15.30;77.60;;;;;;5034771;28;20029;-90
2022/12/19 11:47:31;;;;;;;12.57;6.65;;;15.30;77.60;;;;;;5035364;28;20036;-91
2022/12/19 11:50:30;;;;;;;19.10;7.43;;;15.30;77.70;;;;;;5024498;28;20092;-92
2022/12/19 11:53:22;;;;;;;17.88;7.35;;;15.30;77.70;;;;;;5019391;28;20038;-92
2022/12/19 11:56:07;;;;;;;19.65;7.72;;;15.40;77.80;;;;;;5036707;28;20033;-92
2022/12/19 11:58:32;;;;;;;16.70;7.55;;;15.40;77.90;;;;;;5019767;28;20025;-92
2022/12/19 12:01:25;;;;;;;14.70;7.15;;;15.40;78.00;;;;;;5023940;28;20026;-92
2022/12/19 12:04:25;;;;;;;13.60;6.65;;;15.40;78.10;;;;;;5024244;28;20104;-93
2022/12/19 12:06:53;;;;;;;14.70;7.43;;;15.40;78.10;;;;;;5035031;28;20002;-93
2022/12/19 12:09:35;;;;;;;15.55;6.75;;;15.40;78.50;;;;;;5023757;28;20036;-92
2022/12/19 12:12:16;;;;;;;17.00;7.47;;;15.50;78.50;;;;;;5020773;28;20026;-93
2022/12/19 12:15:12;;;;;;;18.27;7.82;;;15.60;77.90;;;;;;5034370;28;20022;-94
2022/12/19 12:17:50;;;;;;;21.38;8.27;;;15.60;77.40;;;;;;5040828;28;20029;-93
2022/12/19 12:20:39;;;;;;;17.48;7.25;;;15.60;77.40;;;;;;5034445;28;20021;-93
2022/12/19 12:23:27;;;;;;;20.48;8.18;;;15.60;77.40;;;;;;5033193;28;20379;-92
2022/12/19 12:26:01;;;;;;;20.35;7.90;;;15.60;77.40;;;;;;5035951;28;20035;-92
2022/12/19 12:28:48;;;;;;;22.85;8.43;;;15.60;77.50;;;;;;5036929;28;20037;-93
2022/12/19 12:31:34;;;;;;;17.45;6.68;;;15.60;77.50;;;;;;5029417;28;20022;-91
2022/12/19 12:34:29;;;;;;;20.85;7.60;;;15.60;77.40;;;;;;5037710;28;20021;-95
2022/12/19 12:37:06;;;;;;;17.90;7.47;;;15.60;77.40;;;;;;5029585;28;20108;-93
2022/12/19 12:39:41;;;;;;;21.10;7.95;;;15.60;77.30;;;;;;5029886;28;20018;-93
2022/12/19 12:42:24;;;;;;;14.13;6.70;;;15.60;76.90;;;;;;5035596;28;20072;-92
2022/12/19 12:44:54;;;;;;;16.27;6.97;;;15.70;76.60;;;;;;5033784;28;20093;-92
2022/12/19 12:47:23;;;;;;;21.95;8.23;;;15.70;77.30;;;;;;5039055;28;20094;-93
2022/12/19 12:50:06;;;;;;;15.13;7.57;;;15.70;76.40;;;;;;5042344;28;20052;-93
2022/12/19 12:52:39;;;;;;;18.77;7.75;;;15.70;76.30;;;;;;5031670;28;20022;-92
2022/12/19 12:55:17;;;;;;;17.75;7.82;;;15.70;76.20;;;;;;5037110;28;20026;-92
2022/12/19 12:57:42;;;;;;;15.43;7.35;;;15.70;76.10;;;;;;5031945;28;20045;-93
2022/12/19 13:00:28;;;;;;;16.35;7.50;;;15.80;76.20;;;;;;5047926;28;20029;-94
2022/12/19 13:03:16;;;;;;;16.98;7.00;;;15.80;76.20;;;;;;5050257;28;20089;-91